Timber Mountain, Nevada Weather observations

Data are for 10 minute period ending at time listed.
 Day   Time   Solar   Ave.   Ave.  Ave.  Vector  Max.   Baro.   Total    
  of    of     Rad.   Air    Rel.  Wind   Wind   Wind  Press.  Precip.   
Year   Day            Temp.  Hum.  Speed  Dir.   Gust                    
2014   (PST)  Kw/m2    F      %     mph   deg.    mph    mb.     in.     
-------------------------------------------------------------------------
 331   12:00   0.26   62.0     9    5.2   213    14.2   818.4    0.00 
 331   13:00   0.24   60.6    10    7.2   226    14.8   817.7    0.00 
 331   14:00   0.22   60.7    11    4.1   244     9.1   817.2    0.00 
 331   15:00   0.13   59.2    11    3.6   176     9.0   816.9    0.00 
 331   16:00   0.06   55.1    14    4.9   110     8.3   816.7    0.00 
 331   17:00   0.01   53.3    13    3.6    74     7.8   816.5    0.00 
 331   18:00   0.00   54.3    11    2.5   343    11.3   816.4    0.00 
 331   19:00   0.00   52.9    12    2.3    52     9.1   816.3    0.00 
 331   20:00   0.00   53.4    12    3.1   152    10.0   816.3    0.00 
 331   21:00   0.00   52.8    13    3.7   164    11.2   816.2    0.00 
 331   22:00   0.00   52.3    14    5.4   134    11.6   816.0    0.00 
 331   23:00   0.00   49.8    16    3.6   121     8.6   815.7    0.00 
 332    0:00   0.00   48.3    18    5.2   127    11.7   815.3    0.00 
 332    1:00   0.00   48.0    20    7.4   129    14.7   814.9    0.00 
 332    2:00   0.00   46.6    22    6.8   132    13.1   814.6    0.00 
 332    3:00   0.00   47.6    22    7.4   132    15.1   814.1    0.00 
 332    4:00   0.00   46.6    23    8.9   144    13.9   813.7    0.00 
 332    5:00   0.00   46.5    24   10.8   146    16.6   813.3    0.00 
 332    6:00   0.00   46.3    24    9.1   135    16.7   813.2    0.00 
 332    7:00   0.00   47.9    23   10.5   136    18.1   813.0    0.00 
 332    8:00   0.12   49.9    22   11.4   144    19.4   812.9    0.00 
 332    9:00   0.31   53.4    19    9.2   138    19.6   812.8    0.00 
 332   10:00   0.46   54.1    19   10.9   130    18.0   812.8    0.00 
 332   11:00   0.56   55.5    17   10.8   132    18.0   812.3    0.00 

Return to Timber Mountain graphs page.


Western Regional Climate Center,wrcc@dri.edu